Kearneysville, West Virginia
Current Conditions -  °F | °C
As of 2:39 AM on Saturday 29 Nov 2014 (Local Time) from KMRB Reporting Station
Light Snow Light Snow  
Wind Chill: 29°   Ceiling: 2800
Heat Index: 29°   Visibility: 2.5mi
Dew Point: 21°   Wind: 0mph
Humidity: 72%   Direction: NA
Pressure: 30.29"   Gusts: NA
Location:  39.39°N, 77.89°W
Report Text: KMRB 290739Z AUTO 00000KT 2 1/2SM -SN OVC028 M02/M06 A3029 RMK AO2 SNB20 P0000 T10171061 TSNO
Loading
Personal Weather Stations






























Interactive Weather Map New forecast layout! Learn more

10-Day Weather Forecast

Advertisements
Track Severe Weather on mobile